createdAt,value
2017-01-08T21:41:18.338Z,1028.29
2017-01-08T21:42:27.302Z,1028.25
2017-01-08T21:43:36.279Z,1028.27
2017-01-08T21:44:45.261Z,1028.29
2017-01-08T21:45:54.362Z,1028.26
2017-01-08T21:47:03.385Z,1028.24
2017-01-08T21:48:12.359Z,1028.25
2017-01-08T21:49:21.338Z,1028.23
2017-01-08T21:50:30.314Z,1028.24
2017-01-08T21:51:39.295Z,1028.21
2017-01-08T21:52:48.272Z,1028.21
2017-01-08T21:53:57.279Z,1028.23
2017-01-08T21:55:06.255Z,1028.25
2017-01-08T21:56:15.234Z,1028.25
2017-01-08T21:57:24.215Z,1028.26
2017-01-08T21:58:33.196Z,1028.21
2017-01-08T21:59:42.316Z,1028.21
2017-01-08T22:00:51.857Z,1028.2
2017-01-08T22:02:01.057Z,1028.21
2017-01-08T22:03:10.065Z,1028.15
2017-01-08T22:04:19.370Z,1028.15
2017-01-08T22:05:28.913Z,1028.11
2017-01-08T22:06:37.946Z,1028.07
2017-01-08T22:07:47.038Z,1028.07
2017-01-08T22:08:56.348Z,1028.08
2017-01-08T22:10:05.333Z,1028.09
2017-01-08T22:11:14.358Z,1028.08
2017-01-08T22:12:24.586Z,1028.09
2017-01-08T22:13:33.719Z,1028.07
2017-01-08T22:14:42.749Z,1028.03
2017-01-08T22:15:51.730Z,1028.04
2017-01-08T22:17:00.707Z,1028.02
2017-01-08T22:18:09.697Z,1028.09
2017-01-08T22:19:18.700Z,1028.06
2017-01-08T22:20:27.672Z,1028.1
2017-01-08T22:21:36.691Z,1028.07
2017-01-08T22:22:45.674Z,1028.12
2017-01-08T22:23:54.662Z,1028.16
2017-01-08T22:25:03.705Z,1028.19
2017-01-08T22:26:12.781Z,1028.16
2017-01-08T22:27:21.749Z,1028.16
2017-01-08T22:28:30.737Z,1028.18
2017-01-08T22:29:40.658Z,1028.22
2017-01-08T22:30:49.712Z,1028.2
2017-01-08T22:31:58.719Z,1028.17
2017-01-08T22:33:07.698Z,1028.19
2017-01-08T22:34:16.679Z,1028.16
2017-01-08T22:35:25.700Z,1028.13
2017-01-08T22:36:34.755Z,1028.13
2017-01-08T22:37:43.735Z,1028.08
2017-01-08T22:38:52.714Z,1028.07
2017-01-08T22:40:01.704Z,1028.08
2017-01-08T22:41:10.834Z,1028.11
2017-01-08T22:42:19.943Z,1028.12
2017-01-08T22:43:29.026Z,1028.2
2017-01-08T22:44:38.106Z,1028.21
2017-01-08T22:45:47.088Z,1028.2
2017-01-08T22:46:56.079Z,1028.21
2017-01-08T22:48:05.042Z,1028.22
2017-01-08T22:49:14.046Z,1028.2
2017-01-08T22:50:23.044Z,1028.19
2017-01-08T22:51:32.019Z,1028.18
2017-01-08T22:52:41.002Z,1028.16
2017-01-08T22:53:49.978Z,1028.16
2017-01-08T22:54:58.956Z,1028.09
2017-01-08T22:56:07.928Z,1028.11
2017-01-08T22:57:16.914Z,1028.08
2017-01-08T22:58:25.925Z,1028.1
2017-01-08T22:59:34.913Z,1028.1
2017-01-08T23:00:43.895Z,1028.12
2017-01-08T23:01:52.872Z,1028.11
2017-01-08T23:03:01.856Z,1028.12
2017-01-08T23:04:10.833Z,1028.19
2017-01-08T23:05:19.806Z,1028.24
2017-01-08T23:06:28.785Z,1028.27
2017-01-08T23:07:37.772Z,1028.25
2017-01-08T23:08:46.755Z,1028.25
2017-01-08T23:09:55.738Z,1028.19
2017-01-08T23:11:04.725Z,1028.22
2017-01-08T23:12:13.704Z,1028.2
2017-01-08T23:13:22.672Z,1028.16
2017-01-08T23:14:31.648Z,1028.19
2017-01-08T23:15:40.613Z,1028.14
2017-01-08T23:16:49.587Z,1028.11
2017-01-08T23:17:58.571Z,1028.1
2017-01-08T23:19:07.556Z,1028.11
2017-01-08T23:20:16.515Z,1028.05
2017-01-08T23:21:25.503Z,1028.06
2017-01-08T23:22:34.467Z,1028.05
2017-01-08T23:23:43.446Z,1028.07
2017-01-08T23:24:52.430Z,1028.04
2017-01-08T23:26:01.406Z,1028.01
2017-01-08T23:27:10.381Z,1028.05
2017-01-08T23:28:19.368Z,1028.02
2017-01-08T23:29:28.379Z,1027.96
2017-01-08T23:30:37.353Z,1027.94
2017-01-08T23:31:46.335Z,1027.92
2017-01-08T23:32:55.316Z,1027.93
2017-01-08T23:34:04.285Z,1027.94
2017-01-08T23:35:13.267Z,1027.95
2017-01-08T23:36:22.240Z,1027.96
2017-01-08T23:37:31.222Z,1027.9
2017-01-08T23:38:40.230Z,1027.93
2017-01-08T23:39:49.211Z,1027.96
2017-01-08T23:40:58.185Z,1027.91
2017-01-08T23:42:07.169Z,1027.93
2017-01-08T23:43:16.140Z,1027.91
2017-01-08T23:44:25.194Z,1027.93
2017-01-08T23:45:34.597Z,1027.94
2017-01-08T23:46:43.561Z,1027.96
2017-01-08T23:47:52.537Z,1027.96
2017-01-08T23:49:01.522Z,1027.95
2017-01-08T23:50:10.500Z,1027.97
2017-01-08T23:51:19.474Z,1027.96
2017-01-08T23:52:28.458Z,1027.99
2017-01-08T23:53:37.460Z,1027.97
2017-01-08T23:54:46.429Z,1027.96
2017-01-08T23:55:55.417Z,1027.93
2017-01-08T23:57:04.414Z,1027.95
2017-01-08T23:58:13.404Z,1027.91
2017-01-08T23:59:22.372Z,1027.94
